Swiss METAR (experimental, confirm with official sources...) 29-May-2016 14:00:03

GENEVA/COINTRIN
METAR LSGG 291150Z 19012KT 9999 -RA FEW010 FEW040TCU SCT050 BKN070 16/13 Q1007 NOSIG
METAR LSGG 291120Z 19009KT 9999 FEW010 SCT040 BKN060 16/13 Q1007 NOSIG
TAF LSGG 291125Z 2912/3018 23005KT 9999 FEW010 SCT040 BKN060 TX18/2915Z TN13/3004Z TX19/3014Z TEMPO 2912/3015 SHRA SCT020 BKN040 BECMG 3006/3009 24015G25KT
-------------------------------------------------------------------
BERN/BELP
METAR LSZB 291150Z 16009KT 5000 RA BR SCT006 SCT012 OVC035 14/13 Q1008 NOSIG
METAR LSZB 291120Z 12004KT 080V170 5000 RA FEW006 SCT011 OVC038 14/14 Q1008 NOSIG
TAF LSZB 291125Z 2912/2921 VRB03KT 9999 FEW004 SCT009 BKN040 TEMPO 2912/2921 4500 SHRA SCT030TCU PROB40 TEMPO 2912/2918 24010G25KT 4500 TSRA SCT030CB BKN060
-------------------------------------------------------------------
GRENCHEN
METAR LSZG 291150Z VRB01KT 6000 RA SCT006 BKN018 16/15 Q1008 NOSIG
METAR LSZG 291120Z 15003KT 6000 -RA SCT009 SCT014 BKN035 16/15 Q1007 NOSIG
TAF LSZG 291125Z 2912/2921 VRB03KT 9000 SCT009 BKN035 TEMPO 2912/2921 4500 SHRA SCT030TCU PROB30 TEMPO 2912/2918 24010G25KT 4500 TSRA SCT030CB
-------------------------------------------------------------------
SION
METAR LSGS 291150Z 08008KT 020V100 9999 FEW010 SCT070 OVC090 16/13 Q1007
METAR LSMS 291150Z 08008KT 020V100 9999 FEW010 SCT070 OVC090 16/13 Q1007
METAR LSGS 291120Z 07004KT 040V110 9999 -RA FEW010 SCT070 OVC090 15/13 Q1007
TAF LSGS 291125Z 2912/2921 VRB04KT 9999 FEW010 SCT060 BKN080 TEMPO 2912/2921 8000 SHRA FEW010 SCT040 BKN050
-------------------------------------------------------------------
LES EPLATURES
METAR LSGC 291150Z AUTO VRB02KT 9999 OVC039 13/10 Q1008
METAR LSGC 291120Z 19003KT 9999 SCT016 OVC037 13/10 Q1008
TAF LSGC 291125Z 2912/2921 23006KT 9999 BKN030 TEMPO 2912/2921 8000 SHRA SCT020TCU BKN025 PROB30 TEMPO 2912/2921 5000 TSRA SCT020CB BKN025
-------------------------------------------------------------------
PAYERNE
METAR LSMP 291150Z AUTO 00000KT 9999NDV -SHRA FEW012 SCT040 BKN046 16/15 Q1007 RMK

-------------------------------------------------------------------
ZURICH-KLOTEN
METAR LSZH 291150Z 28003KT 250V320 8000 -SHRA FEW010 SCT025 BKN060 15/14 Q1007 RESHRA TEMPO SHRA
METAR LSZH 291120Z 31005KT 8000 SHRA FEW010 SCT045 BKN060 15/13 Q1007 NOSIG
TAF LSZH 291125Z 2912/3018 VRB03KT 9999 FEW010 SCT045 BKN060 TX18/2915Z TN13/3004Z TX18/3015Z TEMPO 2912/3009 4500 SHRA SCT030TCU PROB30 TEMPO 2915/2921 23010G25KT 4500 TSRA SCT030CB BKN040 BECMG 3006/3009 23010KT BECMG 3015/3018VRB03KT
-------------------------------------------------------------------
ALPNACH
METAR LSMA 291150Z AUTO 19007KT 140V300 9999NDV -RA FEW009 SCT013 OVC055 14/12 Q1007 RERA RMK

-------------------------------------------------------------------
DUBENDORF
METAR LSMD 291150Z AUTO 32009KT 290V350 9999NDV RA FEW008 SCT026 BKN036 15/14 Q1007 RMK

-------------------------------------------------------------------
EMMEN
METAR LSME 291150Z AUTO 26009KT 190V290 9999NDV -RA SCT014 BKN025 OVC031 14/12 Q1007 RMK

-------------------------------------------------------------------
MEIRINGEN
METAR LSMM 291150Z AUTO VRB02KT 9999NDV -RA SCT030 OVC067 14/13 Q1008 RMK

-------------------------------------------------------------------
LUGANO
METAR LSZA 291150Z 02004KT 5000 SHRA FEW010 SCT025 OVC045 16/16 Q1008 NOSIG
METAR LSZA 291120Z VRB01KT 5000 SHRA SCT010 SCT025 OVC045 16/16 Q1008 NOSIG
TAF LSZA 291125Z 2912/2921 VRB03KT 6000 SHRA SCT010 SCT025 BKN045 TEMPO 2912/2921 4000 SCT030TCU
-------------------------------------------------------------------
BUOCHS
METAR LSZC 291150Z AUTO 29007KT 260V340 9999 RA FEW027 BKN048 15/12 Q1007
METAR LSZC 291120Z AUTO VRB01KT 9999 -RA BKN009 BKN014 16/15 Q1007

-------------------------------------------------------------------
LOCARNO
METAR LSZL 291150Z AUTO 00000KT 5000NDV RA FEW002 BKN016 BKN021 16/15 Q1008 RERA RMK

-------------------------------------------------------------------
RHEINECK/ALTENRH
METAR LSZR 291150Z 29011KT 9999 -SHRA SCT037 BKN050 18/15 Q1005 NOSIG RMK E
METAR LSZR 291120Z 30011KT CAVOK 18/15 Q1006 NOSIG RMK D
TAF LSZR 291125Z 2912/2921 VRB03KT 9999 FEW016 SCT032 BKN070 TEMPO 2912/2921 29010KT SHRA SCT030TCU
-------------------------------------------------------------------
SAMEDAN
METAR LSZS 291150Z 17007KT 110V240 9999 -RA SCT020 OVC040 09/07 Q1010
METAR LSZS 291120Z 22010KT 190V250 8000 -RA SCT020 OVC040 09/07 Q1010
TAF LSZS 291125Z 2912/2921 VRB03KT 8000 SCT020 OVC040 TX10/2913Z TEMPO 2912/2921 22010KT 4500 SHRA SCT030TCU
-------------------------------------------------------------------
BALE/MULHOUSE
METAR LFSB 291130Z 17003KT 130V200 9999 -RA FEW021 BKN090 19/14 Q1006 NOSIG
TAF LFSB 291100Z 2912/3012 VRB04KT 9999 FEW022 BKN090 TEMPO 2912/3012 4000 SHRA SCT025TCU PROB30 TEMPO 2912/2921 3000 -TSRA FEW030CB PROB30 TEMPO 3010/3012 FEW030CB
-------------------------------------------------------------------
CHAMBERY
METAR LFLB 291130Z 17011KT 9999 FEW020 BKN040 BKN080 18/13 Q1008 TEMPO -RA
TAF LFLB 291100Z 2912/3012 18010KT 9999 FEW020 SCT040 BKN070 TEMPO 2912/2914 -RA BECMG 2914/2916 6000 RA FEW020 BKN040 PROB30 TEMPO 2915/2918 VRB15G25KT 4000 TSRA SCT030CB BKN033 BECMG 3002/3004 NSW TEMPO 3004/3006 BKN023 TEMPO 3006/3011 SHRA BKN033
-------------------------------------------------------------------